sensor_id;sensor_type;location;lat;lon;timestamp;pressure;altitude;pressure_sealevel;temperature;humidity
31538;BME280;18147;51.952;6.146;2023-12-04T00:00:37;101364.50;;;0.74;100.00
31538;BME280;18147;51.952;6.146;2023-12-04T00:03:02;101354.00;;;0.74;100.00
31538;BME280;18147;51.952;6.146;2023-12-04T00:05:28;101344.56;;;0.62;100.00
31538;BME280;18147;51.952;6.146;2023-12-04T00:07:53;101334.31;;;0.45;100.00
31538;BME280;18147;51.952;6.146;2023-12-04T00:10:19;101337.56;;;0.63;100.00
31538;BME280;18147;51.952;6.146;2023-12-04T00:12:45;101337.53;;;0.64;100.00
31538;BME280;18147;51.952;6.146;2023-12-04T00:15:11;101333.06;;;0.72;100.00
31538;BME280;18147;51.952;6.146;2023-12-04T00:17:36;101329.09;;;0.45;100.00
31538;BME280;18147;51.952;6.146;2023-12-04T00:20:08;101316.66;;;0.57;100.00
31538;BME280;18147;51.952;6.146;2023-12-04T00:22:37;101323.88;;;0.42;100.00
31538;BME280;18147;51.952;6.146;2023-12-04T00:25:04;101322.91;;;0.48;100.00
31538;BME280;18147;51.952;6.146;2023-12-04T00:27:30;101319.66;;;0.29;100.00
31538;BME280;18147;51.952;6.146;2023-12-04T00:29:56;101322.66;;;0.65;100.00
31538;BME280;18147;51.952;6.146;2023-12-04T00:32:22;101309.47;;;0.69;100.00
31538;BME280;18147;51.952;6.146;2023-12-04T00:34:47;101315.69;;;0.64;100.00
31538;BME280;18147;51.952;6.146;2023-12-04T00:37:13;101313.72;;;0.78;100.00
31538;BME280;18147;51.952;6.146;2023-12-04T00:39:38;101313.03;;;0.67;100.00
31538;BME280;18147;51.952;6.146;2023-12-04T00:42:04;101307.66;;;0.73;100.00
31538;BME280;18147;51.952;6.146;2023-12-04T00:44:29;101293.81;;;0.63;100.00
31538;BME280;18147;51.952;6.146;2023-12-04T00:46:55;101297.22;;;0.70;100.00
31538;BME280;18147;51.952;6.146;2023-12-04T00:49:20;101285.91;;;0.66;100.00
31538;BME280;18147;51.952;6.146;2023-12-04T00:51:46;101290.19;;;0.72;100.00
31538;BME280;18147;51.952;6.146;2023-12-04T00:54:11;101278.25;;;0.52;100.00
31538;BME280;18147;51.952;6.146;2023-12-04T00:56:40;101281.81;;;0.47;100.00
31538;BME280;18147;51.952;6.146;2023-12-04T00:59:09;101280.25;;;0.34;100.00
31538;BME280;18147;51.952;6.146;2023-12-04T01:01:38;101292.47;;;0.35;100.00
31538;BME280;18147;51.952;6.146;2023-12-04T01:04:04;101290.69;;;0.38;100.00
31538;BME280;18147;51.952;6.146;2023-12-04T01:06:29;101282.56;;;0.55;100.00
31538;BME280;18147;51.952;6.146;2023-12-04T01:08:56;101285.25;;;0.52;100.00
31538;BME280;18147;51.952;6.146;2023-12-04T01:11:22;101283.06;;;0.20;100.00
31538;BME280;18147;51.952;6.146;2023-12-04T01:13:50;101277.75;;;0.24;100.00
31538;BME280;18147;51.952;6.146;2023-12-04T01:16:16;101274.88;;;0.43;100.00
31538;BME280;18147;51.952;6.146;2023-12-04T01:18:42;101275.84;;;0.37;100.00
31538;BME280;18147;51.952;6.146;2023-12-04T01:21:08;101269.56;;;0.47;100.00
31538;BME280;18147;51.952;6.146;2023-12-04T01:23:35;101265.31;;;0.39;100.00
31538;BME280;18147;51.952;6.146;2023-12-04T01:26:01;101270.78;;;0.23;100.00
31538;BME280;18147;51.952;6.146;2023-12-04T01:28:27;101261.28;;;0.15;100.00
31538;BME280;18147;51.952;6.146;2023-12-04T01:30:52;101257.72;;;0.22;100.00
31538;BME280;18147;51.952;6.146;2023-12-04T01:33:18;101263.47;;;0.47;100.00
31538;BME280;18147;51.952;6.146;2023-12-04T01:35:46;101267.66;;;0.59;100.00
31538;BME280;18147;51.952;6.146;2023-12-04T01:38:12;101259.66;;;0.66;100.00
31538;BME280;18147;51.952;6.146;2023-12-04T01:40:37;101251.88;;;0.62;100.00
31538;BME280;18147;51.952;6.146;2023-12-04T01:43:03;101250.03;;;0.67;100.00
31538;BME280;18147;51.952;6.146;2023-12-04T01:45:29;101250.75;;;0.76;100.00
31538;BME280;18147;51.952;6.146;2023-12-04T01:47:54;101248.16;;;0.73;100.00
31538;BME280;18147;51.952;6.146;2023-12-04T01:50:20;101249.19;;;0.66;100.00
31538;BME280;18147;51.952;6.146;2023-12-04T01:52:46;101240.03;;;0.35;100.00
31538;BME280;18147;51.952;6.146;2023-12-04T01:55:13;101242.66;;;0.36;100.00
31538;BME280;18147;51.952;6.146;2023-12-04T01:57:40;101234.66;;;0.44;100.00
31538;BME280;18147;51.952;6.146;2023-12-04T02:00:06;101229.44;;;0.42;100.00
31538;BME280;18147;51.952;6.146;2023-12-04T02:02:38;101234.22;;;0.70;100.00
31538;BME280;18147;51.952;6.146;2023-12-04T02:05:05;101221.59;;;0.41;100.00
31538;BME280;18147;51.952;6.146;2023-12-04T02:07:33;101216.72;;;0.72;100.00
31538;BME280;18147;51.952;6.146;2023-12-04T02:09:58;101207.97;;;0.71;100.00
31538;BME280;18147;51.952;6.146;2023-12-04T02:12:24;101202.16;;;0.52;100.00
31538;BME280;18147;51.952;6.146;2023-12-04T02:14:51;101204.84;;;0.48;100.00
31538;BME280;18147;51.952;6.146;2023-12-04T02:17:18;101198.78;;;0.44;100.00
31538;BME280;18147;51.952;6.146;2023-12-04T02:19:44;101189.97;;;0.48;100.00
31538;BME280;18147;51.952;6.146;2023-12-04T02:22:09;101200.16;;;0.68;100.00
31538;BME280;18147;51.952;6.146;2023-12-04T02:24:35;101194.81;;;0.73;100.00
31538;BME280;18147;51.952;6.146;2023-12-04T02:27:13;101197.66;;;0.61;100.00
31538;BME280;18147;51.952;6.146;2023-12-04T02:29:47;101191.19;;;0.82;100.00
31538;BME280;18147;51.952;6.146;2023-12-04T02:32:15;101194.56;;;0.88;100.00
31538;BME280;18147;51.952;6.146;2023-12-04T02:34:43;101184.22;;;0.79;100.00
31538;BME280;18147;51.952;6.146;2023-12-04T02:37:11;101173.94;;;0.67;100.00
31538;BME280;18147;51.952;6.146;2023-12-04T02:39:38;101173.88;;;0.71;100.00
31538;BME280;18147;51.952;6.146;2023-12-04T02:42:04;101158.91;;;0.76;100.00
31538;BME280;18147;51.952;6.146;2023-12-04T02:44:29;101163.31;;;0.73;100.00
31538;BME280;18147;51.952;6.146;2023-12-04T02:46:55;101156.50;;;0.63;100.00
31538;BME280;18147;51.952;6.146;2023-12-04T02:49:21;101158.34;;;0.58;100.00
31538;BME280;18147;51.952;6.146;2023-12-04T02:51:46;101152.81;;;0.73;100.00
31538;BME280;18147;51.952;6.146;2023-12-04T02:54:12;101148.41;;;0.75;100.00
31538;BME280;18147;51.952;6.146;2023-12-04T02:56:37;101143.84;;;0.37;100.00
31538;BME280;18147;51.952;6.146;2023-12-04T02:59:03;101134.81;;;0.53;100.00
31538;BME280;18147;51.952;6.146;2023-12-04T03:01:28;101131.09;;;0.65;100.00
31538;BME280;18147;51.952;6.146;2023-12-04T03:03:54;101130.09;;;0.72;100.00
31538;BME280;18147;51.952;6.146;2023-12-04T03:06:19;101123.09;;;0.72;100.00
31538;BME280;18147;51.952;6.146;2023-12-04T03:08:45;101127.59;;;0.66;100.00
31538;BME280;18147;51.952;6.146;2023-12-04T03:11:10;101120.63;;;0.63;100.00
31538;BME280;18147;51.952;6.146;2023-12-04T03:13:36;101111.00;;;0.65;100.00
31538;BME280;18147;51.952;6.146;2023-12-04T03:16:01;101119.06;;;0.53;100.00
31538;BME280;18147;51.952;6.146;2023-12-04T03:18:27;101116.44;;;0.53;100.00
31538;BME280;18147;51.952;6.146;2023-12-04T03:20:54;101112.75;;;0.63;100.00
31538;BME280;18147;51.952;6.146;2023-12-04T03:23:19;101116.06;;;0.74;100.00
31538;BME280;18147;51.952;6.146;2023-12-04T03:25:48;101106.44;;;0.73;100.00
31538;BME280;18147;51.952;6.146;2023-12-04T03:28:13;101105.88;;;0.58;100.00
31538;BME280;18147;51.952;6.146;2023-12-04T03:30:41;101106.03;;;0.48;100.00
31538;BME280;18147;51.952;6.146;2023-12-04T03:33:10;101092.72;;;0.59;100.00
31538;BME280;18147;51.952;6.146;2023-12-04T03:35:36;101097.22;;;0.52;100.00
31538;BME280;18147;51.952;6.146;2023-12-04T03:38:01;101096.19;;;0.61;100.00
31538;BME280;18147;51.952;6.146;2023-12-04T03:40:27;101096.97;;;0.66;100.00
31538;BME280;18147;51.952;6.146;2023-12-04T03:42:52;101097.06;;;0.60;100.00
31538;BME280;18147;51.952;6.146;2023-12-04T03:45:18;101090.81;;;0.67;100.00
31538;BME280;18147;51.952;6.146;2023-12-04T03:47:43;101088.94;;;0.75;100.00
31538;BME280;18147;51.952;6.146;2023-12-04T03:50:09;101087.25;;;0.70;100.00
31538;BME280;18147;51.952;6.146;2023-12-04T03:52:34;101085.53;;;0.70;100.00
31538;BME280;18147;51.952;6.146;2023-12-04T03:55:00;101072.47;;;0.67;100.00
31538;BME280;18147;51.952;6.146;2023-12-04T03:57:25;101077.75;;;0.66;100.00
31538;BME280;18147;51.952;6.146;2023-12-04T03:59:51;101079.47;;;0.67;100.00
31538;BME280;18147;51.952;6.146;2023-12-04T04:02:16;101067.22;;;0.67;100.00
31538;BME280;18147;51.952;6.146;2023-12-04T04:04:42;101062.69;;;0.75;100.00
31538;BME280;18147;51.952;6.146;2023-12-04T04:07:08;101059.03;;;0.83;100.00
31538;BME280;18147;51.952;6.146;2023-12-04T04:09:34;101061.06;;;0.68;100.00
31538;BME280;18147;51.952;6.146;2023-12-04T04:11:59;101058.25;;;0.77;100.00
31538;BME280;18147;51.952;6.146;2023-12-04T04:14:25;101054.88;;;0.72;100.00
31538;BME280;18147;51.952;6.146;2023-12-04T04:16:50;101055.00;;;0.65;100.00
31538;BME280;18147;51.952;6.146;2023-12-04T04:19:15;101061.22;;;0.59;100.00
31538;BME280;18147;51.952;6.146;2023-12-04T04:21:41;101056.06;;;0.56;100.00
31538;BME280;18147;51.952;6.146;2023-12-04T04:24:07;101051.75;;;0.52;100.00
31538;BME280;18147;51.952;6.146;2023-12-04T04:26:32;101052.88;;;0.40;100.00
31538;BME280;18147;51.952;6.146;2023-12-04T04:28:58;101051.59;;;0.60;100.00
31538;BME280;18147;51.952;6.146;2023-12-04T04:31:23;101044.72;;;0.56;100.00
31538;BME280;18147;51.952;6.146;2023-12-04T04:33:49;101036.22;;;0.41;100.00
31538;BME280;18147;51.952;6.146;2023-12-04T04:36:14;101030.97;;;0.40;100.00
31538;BME280;18147;51.952;6.146;2023-12-04T04:38:43;101022.16;;;0.44;100.00
31538;BME280;18147;51.952;6.146;2023-12-04T04:41:15;101016.09;;;0.42;100.00
31538;BME280;18147;51.952;6.146;2023-12-04T04:43:41;101023.06;;;0.43;100.00
31538;BME280;18147;51.952;6.146;2023-12-04T04:46:07;101015.16;;;0.44;100.00
31538;BME280;18147;51.952;6.146;2023-12-04T04:48:33;101014.41;;;0.38;100.00
31538;BME280;18147;51.952;6.146;2023-12-04T04:50:58;101017.03;;;0.38;100.00
31538;BME280;18147;51.952;6.146;2023-12-04T04:53:24;101005.53;;;0.45;100.00
31538;BME280;18147;51.952;6.146;2023-12-04T04:55:49;101005.41;;;0.52;100.00
31538;BME280;18147;51.952;6.146;2023-12-04T04:58:15;100997.78;;;0.40;100.00
31538;BME280;18147;51.952;6.146;2023-12-04T05:00:41;100995.94;;;0.44;100.00
31538;BME280;18147;51.952;6.146;2023-12-04T05:03:07;100989.00;;;0.41;100.00
31538;BME280;18147;51.952;6.146;2023-12-04T05:05:33;100988.16;;;0.41;100.00
31538;BME280;18147;51.952;6.146;2023-12-04T05:07:58;100989.00;;;0.40;100.00
31538;BME280;18147;51.952;6.146;2023-12-04T05:10:23;100986.44;;;0.38;100.00
31538;BME280;18147;51.952;6.146;2023-12-04T05:12:49;100980.13;;;0.48;100.00
31538;BME280;18147;51.952;6.146;2023-12-04T05:15:15;100983.72;;;0.43;100.00
31538;BME280;18147;51.952;6.146;2023-12-04T05:17:40;100982.81;;;0.45;100.00
31538;BME280;18147;51.952;6.146;2023-12-04T05:20:06;100982.94;;;0.38;100.00
31538;BME280;18147;51.952;6.146;2023-12-04T05:22:34;100979.38;;;0.42;100.00
31538;BME280;18147;51.952;6.146;2023-12-04T05:24:59;100985.41;;;0.47;100.00
31538;BME280;18147;51.952;6.146;2023-12-04T05:27:25;100988.03;;;0.47;100.00
31538;BME280;18147;51.952;6.146;2023-12-04T05:29:50;100981.94;;;0.45;100.00
31538;BME280;18147;51.952;6.146;2023-12-04T05:32:16;100979.97;;;0.56;100.00
31538;BME280;18147;51.952;6.146;2023-12-04T05:34:42;100982.59;;;0.56;100.00
31538;BME280;18147;51.952;6.146;2023-12-04T05:37:07;100979.81;;;0.64;100.00
31538;BME280;18147;51.952;6.146;2023-12-04T05:39:33;100979.06;;;0.57;100.00
31538;BME280;18147;51.952;6.146;2023-12-04T05:41:59;100980.56;;;0.69;100.00
31538;BME280;18147;51.952;6.146;2023-12-04T05:44:24;100970.25;;;0.61;100.00
31538;BME280;18147;51.952;6.146;2023-12-04T05:46:50;100966.72;;;0.62;100.00
31538;BME280;18147;51.952;6.146;2023-12-04T05:49:15;100970.34;;;0.57;100.00
31538;BME280;18147;51.952;6.146;2023-12-04T05:51:41;100967.53;;;0.64;100.00
31538;BME280;18147;51.952;6.146;2023-12-04T05:54:06;100958.13;;;0.54;100.00
31538;BME280;18147;51.952;6.146;2023-12-04T05:56:32;100956.31;;;0.58;100.00
31538;BME280;18147;51.952;6.146;2023-12-04T05:58:57;100961.63;;;0.55;100.00
31538;BME280;18147;51.952;6.146;2023-12-04T06:01:23;100952.88;;;0.56;100.00
31538;BME280;18147;51.952;6.146;2023-12-04T06:03:48;100945.88;;;0.56;100.00
31538;BME280;18147;51.952;6.146;2023-12-04T06:06:14;100947.31;;;0.69;100.00
31538;BME280;18147;51.952;6.146;2023-12-04T06:08:39;100944.03;;;0.60;100.00
31538;BME280;18147;51.952;6.146;2023-12-04T06:11:05;100940.53;;;0.59;100.00
31538;BME280;18147;51.952;6.146;2023-12-04T06:13:30;100936.06;;;0.66;100.00
31538;BME280;18147;51.952;6.146;2023-12-04T06:15:56;100936.06;;;0.64;100.00
31538;BME280;18147;51.952;6.146;2023-12-04T06:18:21;100921.84;;;0.74;100.00
31538;BME280;18147;51.952;6.146;2023-12-04T06:20:47;100923.91;;;0.60;100.00
31538;BME280;18147;51.952;6.146;2023-12-04T06:23:13;100918.50;;;0.68;100.00
31538;BME280;18147;51.952;6.146;2023-12-04T06:25:38;100914.06;;;0.70;100.00
31538;BME280;18147;51.952;6.146;2023-12-04T06:28:04;100914.72;;;0.80;100.00
31538;BME280;18147;51.952;6.146;2023-12-04T06:30:30;100923.72;;;0.69;100.00
31538;BME280;18147;51.952;6.146;2023-12-04T06:32:56;100906.91;;;0.78;100.00
31538;BME280;18147;51.952;6.146;2023-12-04T06:35:22;100911.34;;;0.74;100.00
31538;BME280;18147;51.952;6.146;2023-12-04T06:38:01;100908.78;;;0.73;100.00
31538;BME280;18147;51.952;6.146;2023-12-04T06:40:30;100907.00;;;0.73;100.00
31538;BME280;18147;51.952;6.146;2023-12-04T06:42:57;100916.34;;;0.85;100.00
31538;BME280;18147;51.952;6.146;2023-12-04T06:45:23;100911.06;;;0.88;100.00
31538;BME280;18147;51.952;6.146;2023-12-04T06:47:50;100900.84;;;0.74;100.00
31538;BME280;18147;51.952;6.146;2023-12-04T06:50:16;100891.97;;;0.80;100.00
31538;BME280;18147;51.952;6.146;2023-12-04T06:52:42;100885.06;;;0.77;100.00
31538;BME280;18147;51.952;6.146;2023-12-04T06:55:07;100878.91;;;0.78;100.00
31538;BME280;18147;51.952;6.146;2023-12-04T06:57:33;100881.56;;;0.77;100.00
31538;BME280;18147;51.952;6.146;2023-12-04T06:59:59;100877.84;;;0.87;100.00
31538;BME280;18147;51.952;6.146;2023-12-04T07:02:24;100866.78;;;0.73;100.00
31538;BME280;18147;51.952;6.146;2023-12-04T07:04:50;100870.22;;;0.76;100.00
31538;BME280;18147;51.952;6.146;2023-12-04T07:07:15;100865.63;;;0.85;100.00
31538;BME280;18147;51.952;6.146;2023-12-04T07:09:41;100867.22;;;0.92;100.00
31538;BME280;18147;51.952;6.146;2023-12-04T07:12:06;100864.00;;;0.81;100.00
31538;BME280;18147;51.952;6.146;2023-12-04T07:14:32;100858.44;;;0.93;100.00
31538;BME280;18147;51.952;6.146;2023-12-04T07:16:57;100853.94;;;0.98;100.00
31538;BME280;18147;51.952;6.146;2023-12-04T07:19:23;100849.72;;;0.92;100.00
31538;BME280;18147;51.952;6.146;2023-12-04T07:21:49;100855.16;;;0.83;100.00
31538;BME280;18147;51.952;6.146;2023-12-04T07:24:15;100846.06;;;0.98;100.00
31538;BME280;18147;51.952;6.146;2023-12-04T07:26:41;100847.50;;;0.75;100.00
31538;BME280;18147;51.952;6.146;2023-12-04T07:29:07;100856.94;;;0.83;100.00
31538;BME280;18147;51.952;6.146;2023-12-04T07:31:32;100840.22;;;0.87;100.00
31538;BME280;18147;51.952;6.146;2023-12-04T07:33:58;100839.25;;;0.91;100.00
31538;BME280;18147;51.952;6.146;2023-12-04T07:36:25;100837.56;;;0.88;100.00
31538;BME280;18147;51.952;6.146;2023-12-04T07:38:51;100845.50;;;0.85;100.00
31538;BME280;18147;51.952;6.146;2023-12-04T07:41:19;100828.59;;;0.97;100.00
31538;BME280;18147;51.952;6.146;2023-12-04T07:43:45;100831.34;;;0.92;100.00
31538;BME280;18147;51.952;6.146;2023-12-04T07:46:10;100825.50;;;0.80;100.00
31538;BME280;18147;51.952;6.146;2023-12-04T07:48:37;100833.22;;;0.87;100.00
31538;BME280;18147;51.952;6.146;2023-12-04T07:51:03;100821.91;;;0.84;100.00
31538;BME280;18147;51.952;6.146;2023-12-04T07:53:29;100820.09;;;0.87;100.00
31538;BME280;18147;51.952;6.146;2023-12-04T07:55:54;100812.25;;;0.86;100.00
31538;BME280;18147;51.952;6.146;2023-12-04T07:58:20;100813.97;;;0.87;100.00
31538;BME280;18147;51.952;6.146;2023-12-04T08:00:45;100806.97;;;0.87;100.00
31538;BME280;18147;51.952;6.146;2023-12-04T08:03:11;100800.06;;;0.83;100.00
31538;BME280;18147;51.952;6.146;2023-12-04T08:05:36;100802.63;;;0.85;100.00
31538;BME280;18147;51.952;6.146;2023-12-04T08:08:03;100805.03;;;0.94;100.00
31538;BME280;18147;51.952;6.146;2023-12-04T08:10:29;100797.91;;;1.00;100.00
31538;BME280;18147;51.952;6.146;2023-12-04T08:12:54;100805.53;;;1.10;100.00
31538;BME280;18147;51.952;6.146;2023-12-04T08:15:20;100804.72;;;1.08;100.00
31538;BME280;18147;51.952;6.146;2023-12-04T08:17:45;100803.16;;;1.00;100.00
31538;BME280;18147;51.952;6.146;2023-12-04T08:20:11;100803.84;;;1.07;100.00
31538;BME280;18147;51.952;6.146;2023-12-04T08:22:40;100813.75;;;1.32;100.00
31538;BME280;18147;51.952;6.146;2023-12-04T08:25:07;100817.63;;;1.49;100.00
31538;BME280;18147;51.952;6.146;2023-12-04T08:27:32;100807.34;;;1.42;100.00
31538;BME280;18147;51.952;6.146;2023-12-04T08:29:58;100812.91;;;1.29;100.00
31538;BME280;18147;51.952;6.146;2023-12-04T08:32:24;100811.25;;;1.25;100.00
31538;BME280;18147;51.952;6.146;2023-12-04T08:34:51;100800.19;;;1.13;100.00
31538;BME280;18147;51.952;6.146;2023-12-04T08:37:18;100809.41;;;1.29;100.00
31538;BME280;18147;51.952;6.146;2023-12-04T08:39:44;100805.44;;;1.47;100.00
31538;BME280;18147;51.952;6.146;2023-12-04T08:42:09;100797.06;;;1.33;100.00
31538;BME280;18147;51.952;6.146;2023-12-04T08:44:35;100799.66;;;1.34;100.00
31538;BME280;18147;51.952;6.146;2023-12-04T08:47:01;100788.44;;;1.27;100.00
31538;BME280;18147;51.952;6.146;2023-12-04T08:49:26;100780.69;;;1.23;100.00
31538;BME280;18147;51.952;6.146;2023-12-04T08:51:52;100780.72;;;1.21;100.00
31538;BME280;18147;51.952;6.146;2023-12-04T08:54:18;100788.34;;;1.32;100.00
31538;BME280;18147;51.952;6.146;2023-12-04T08:56:44;100773.03;;;1.14;100.00
31538;BME280;18147;51.952;6.146;2023-12-04T08:59:10;100769.28;;;1.24;100.00
31538;BME280;18147;51.952;6.146;2023-12-04T09:01:35;100768.84;;;1.41;100.00
31538;BME280;18147;51.952;6.146;2023-12-04T09:04:01;100770.13;;;1.26;100.00
31538;BME280;18147;51.952;6.146;2023-12-04T09:06:27;100772.78;;;1.55;100.00
31538;BME280;18147;51.952;6.146;2023-12-04T09:08:52;100770.31;;;1.51;100.00
31538;BME280;18147;51.952;6.146;2023-12-04T09:11:19;100760.56;;;1.54;100.00
31538;BME280;18147;51.952;6.146;2023-12-04T09:13:44;100756.03;;;1.61;100.00
31538;BME280;18147;51.952;6.146;2023-12-04T09:16:10;100759.53;;;1.60;100.00
31538;BME280;18147;51.952;6.146;2023-12-04T09:18:36;100759.94;;;1.77;100.00
31538;BME280;18147;51.952;6.146;2023-12-04T09:21:01;100758.34;;;1.72;100.00
31538;BME280;18147;51.952;6.146;2023-12-04T09:23:27;100758.06;;;1.50;100.00
31538;BME280;18147;51.952;6.146;2023-12-04T09:25:53;100759.25;;;1.71;100.00
31538;BME280;18147;51.952;6.146;2023-12-04T09:28:18;100762.56;;;1.77;100.00
31538;BME280;18147;51.952;6.146;2023-12-04T09:30:44;100756.81;;;1.63;100.00
31538;BME280;18147;51.952;6.146;2023-12-04T09:33:10;100752.25;;;1.70;100.00
31538;BME280;18147;51.952;6.146;2023-12-04T09:35:35;100754.13;;;1.66;100.00
31538;BME280;18147;51.952;6.146;2023-12-04T09:38:01;100746.88;;;1.74;100.00
31538;BME280;18147;51.952;6.146;2023-12-04T09:40:27;100744.34;;;1.71;100.00
31538;BME280;18147;51.952;6.146;2023-12-04T09:42:52;100752.81;;;1.81;100.00
31538;BME280;18147;51.952;6.146;2023-12-04T09:45:19;100750.19;;;1.81;100.00
31538;BME280;18147;51.952;6.146;2023-12-04T09:47:48;100749.91;;;1.90;100.00
31538;BME280;18147;51.952;6.146;2023-12-04T09:50:15;100753.44;;;1.89;100.00
31538;BME280;18147;51.952;6.146;2023-12-04T09:52:41;100748.75;;;1.71;100.00
31538;BME280;18147;51.952;6.146;2023-12-04T09:55:08;100744.03;;;1.82;100.00
31538;BME280;18147;51.952;6.146;2023-12-04T09:57:33;100749.97;;;1.89;100.00
31538;BME280;18147;51.952;6.146;2023-12-04T10:00:00;100741.88;;;1.96;100.00
31538;BME280;18147;51.952;6.146;2023-12-04T10:02:37;100744.16;;;2.07;100.00
31538;BME280;18147;51.952;6.146;2023-12-04T10:05:03;100743.44;;;2.02;100.00
31538;BME280;18147;51.952;6.146;2023-12-04T10:07:31;100737.28;;;2.03;100.00
31538;BME280;18147;51.952;6.146;2023-12-04T10:09:56;100737.19;;;2.06;100.00
31538;BME280;18147;51.952;6.146;2023-12-04T10:12:22;100723.53;;;2.23;100.00
31538;BME280;18147;51.952;6.146;2023-12-04T10:15:03;100722.75;;;2.19;100.00
31538;BME280;18147;51.952;6.146;2023-12-04T10:17:33;100717.47;;;2.19;100.00
31538;BME280;18147;51.952;6.146;2023-12-04T10:20:04;100716.75;;;2.14;100.00
31538;BME280;18147;51.952;6.146;2023-12-04T10:22:36;100720.06;;;2.21;100.00
31538;BME280;18147;51.952;6.146;2023-12-04T10:25:14;100709.22;;;2.31;100.00
31538;BME280;18147;51.952;6.146;2023-12-04T10:27:41;100703.91;;;2.33;100.00
31538;BME280;18147;51.952;6.146;2023-12-04T10:30:07;100702.22;;;2.30;100.00
31538;BME280;18147;51.952;6.146;2023-12-04T10:32:36;100694.75;;;2.45;100.00
31538;BME280;18147;51.952;6.146;2023-12-04T10:35:02;100694.31;;;2.32;100.00
31538;BME280;18147;51.952;6.146;2023-12-04T10:37:29;100696.16;;;2.28;100.00
31538;BME280;18147;51.952;6.146;2023-12-04T10:39:57;100694.59;;;2.23;100.00
31538;BME280;18147;51.952;6.146;2023-12-04T10:42:27;100683.94;;;2.54;100.00
31538;BME280;18147;51.952;6.146;2023-12-04T10:44:57;100683.47;;;2.68;100.00
31538;BME280;18147;51.952;6.146;2023-12-04T10:47:23;100685.84;;;2.49;100.00
31538;BME280;18147;51.952;6.146;2023-12-04T10:49:50;100681.03;;;2.35;100.00
31538;BME280;18147;51.952;6.146;2023-12-04T10:52:16;100675.41;;;2.46;100.00
31538;BME280;18147;51.952;6.146;2023-12-04T10:54:48;100678.38;;;2.37;100.00
31538;BME280;18147;51.952;6.146;2023-12-04T10:57:27;100667.56;;;2.44;100.00
31538;BME280;18147;51.952;6.146;2023-12-04T10:59:57;100662.53;;;2.38;100.00
31538;BME280;18147;51.952;6.146;2023-12-04T11:02:26;100656.50;;;2.34;100.00
31538;BME280;18147;51.952;6.146;2023-12-04T11:04:55;100653.84;;;2.34;100.00
31538;BME280;18147;51.952;6.146;2023-12-04T11:07:22;100649.44;;;2.35;100.00
31538;BME280;18147;51.952;6.146;2023-12-04T11:09:49;100650.13;;;2.68;100.00
31538;BME280;18147;51.952;6.146;2023-12-04T11:12:18;100653.38;;;2.75;100.00
31538;BME280;18147;51.952;6.146;2023-12-04T11:14:55;100647.69;;;2.62;100.00
31538;BME280;18147;51.952;6.146;2023-12-04T11:17:22;100644.97;;;2.39;100.00
31538;BME280;18147;51.952;6.146;2023-12-04T11:19:54;100635.16;;;2.44;100.00
31538;BME280;18147;51.952;6.146;2023-12-04T11:22:25;100629.72;;;2.48;100.00
31538;BME280;18147;51.952;6.146;2023-12-04T11:24:50;100625.97;;;2.29;100.00
31538;BME280;18147;51.952;6.146;2023-12-04T11:27:20;100631.28;;;2.54;100.00
31538;BME280;18147;51.952;6.146;2023-12-04T11:29:47;100628.16;;;2.43;100.00
31538;BME280;18147;51.952;6.146;2023-12-04T11:32:16;100620.34;;;2.40;100.00
31538;BME280;18147;51.952;6.146;2023-12-04T11:34:54;100614.41;;;2.61;100.00
31538;BME280;18147;51.952;6.146;2023-12-04T11:37:21;100617.38;;;2.50;100.00
31538;BME280;18147;51.952;6.146;2023-12-04T11:39:52;100617.22;;;2.55;100.00
31538;BME280;18147;51.952;6.146;2023-12-04T11:42:19;100618.19;;;2.52;100.00
31538;BME280;18147;51.952;6.146;2023-12-04T11:44:48;100613.03;;;2.49;100.00
31538;BME280;18147;51.952;6.146;2023-12-04T11:47:13;100608.41;;;2.56;100.00
31538;BME280;18147;51.952;6.146;2023-12-04T11:49:39;100601.28;;;2.59;100.00
31538;BME280;18147;51.952;6.146;2023-12-04T11:52:05;100597.16;;;2.51;100.00
31538;BME280;18147;51.952;6.146;2023-12-04T11:54:57;100592.78;;;2.51;100.00
31538;BME280;18147;51.952;6.146;2023-12-04T11:57:24;100592.50;;;2.59;100.00
31538;BME280;18147;51.952;6.146;2023-12-04T11:59:51;100588.91;;;2.37;100.00
31538;BME280;18147;51.952;6.146;2023-12-04T12:02:17;100586.78;;;2.48;100.00
31538;BME280;18147;51.952;6.146;2023-12-04T12:04:42;100577.31;;;2.42;100.00
31538;BME280;18147;51.952;6.146;2023-12-04T12:07:09;100572.06;;;2.42;100.00
31538;BME280;18147;51.952;6.146;2023-12-04T12:09:34;100574.78;;;2.39;100.00
31538;BME280;18147;51.952;6.146;2023-12-04T12:12:01;100560.94;;;2.59;100.00
31538;BME280;18147;51.952;6.146;2023-12-04T12:14:28;100567.97;;;2.58;100.00
31538;BME280;18147;51.952;6.146;2023-12-04T12:17:00;100562.56;;;2.63;100.00
31538;BME280;18147;51.952;6.146;2023-12-04T12:19:26;100566.63;;;2.47;100.00
31538;BME280;18147;51.952;6.146;2023-12-04T12:21:52;100563.78;;;2.53;100.00
31538;BME280;18147;51.952;6.146;2023-12-04T12:24:18;100554.66;;;2.63;100.00
31538;BME280;18147;51.952;6.146;2023-12-04T12:26:44;100552.50;;;2.74;100.00
31538;BME280;18147;51.952;6.146;2023-12-04T12:29:10;100550.03;;;2.45;100.00
31538;BME280;18147;51.952;6.146;2023-12-04T12:31:36;100546.28;;;2.77;100.00
31538;BME280;18147;51.952;6.146;2023-12-04T12:34:01;100540.63;;;2.63;100.00
31538;BME280;18147;51.952;6.146;2023-12-04T12:36:28;100536.25;;;2.87;100.00
31538;BME280;18147;51.952;6.146;2023-12-04T12:38:54;100540.16;;;2.76;100.00
31538;BME280;18147;51.952;6.146;2023-12-04T12:41:20;100535.09;;;2.70;100.00
31538;BME280;18147;51.952;6.146;2023-12-04T12:43:46;100539.09;;;2.80;100.00
31538;BME280;18147;51.952;6.146;2023-12-04T12:46:12;100532.06;;;2.81;100.00